sensor_id;sensor_type;location;lat;lon;timestamp;pressure;altitude;pressure_sealevel;temperature;humidity
4398;BME280;2213;49.720;7.296;2022-09-21T00:01:43;98991.28;;;9.77;100.00
4398;BME280;2213;49.720;7.296;2022-09-21T00:04:12;98986.75;;;9.79;100.00
4398;BME280;2213;49.720;7.296;2022-09-21T00:06:42;98993.41;;;9.73;100.00
4398;BME280;2213;49.720;7.296;2022-09-21T00:09:14;98987.84;;;9.76;100.00
4398;BME280;2213;49.720;7.296;2022-09-21T00:11:43;98990.28;;;9.70;100.00
4398;BME280;2213;49.720;7.296;2022-09-21T00:14:14;98981.13;;;9.66;100.00
4398;BME280;2213;49.720;7.296;2022-09-21T00:16:47;98988.31;;;9.64;100.00
4398;BME280;2213;49.720;7.296;2022-09-21T00:19:17;98985.00;;;9.61;100.00
4398;BME280;2213;49.720;7.296;2022-09-21T00:21:47;98980.13;;;9.58;100.00
4398;BME280;2213;49.720;7.296;2022-09-21T00:24:18;98984.38;;;9.59;100.00
4398;BME280;2213;49.720;7.296;2022-09-21T00:26:47;98984.84;;;9.55;100.00
4398;BME280;2213;49.720;7.296;2022-09-21T00:29:17;98988.91;;;9.49;100.00
4398;BME280;2213;49.720;7.296;2022-09-21T00:31:47;98982.72;;;9.50;100.00
4398;BME280;2213;49.720;7.296;2022-09-21T00:34:18;98987.13;;;9.50;100.00
4398;BME280;2213;49.720;7.296;2022-09-21T00:36:52;98985.59;;;9.39;100.00
4398;BME280;2213;49.720;7.296;2022-09-21T00:39:23;98984.25;;;9.35;100.00
4398;BME280;2213;49.720;7.296;2022-09-21T00:41:52;98987.50;;;9.29;100.00
4398;BME280;2213;49.720;7.296;2022-09-21T00:44:32;98998.09;;;9.28;100.00
4398;BME280;2213;49.720;7.296;2022-09-21T00:47:10;98991.72;;;9.30;100.00
4398;BME280;2213;49.720;7.296;2022-09-21T00:49:43;98989.28;;;9.29;100.00
4398;BME280;2213;49.720;7.296;2022-09-21T00:52:17;98997.38;;;9.18;100.00
4398;BME280;2213;49.720;7.296;2022-09-21T00:54:59;98998.34;;;9.17;100.00
4398;BME280;2213;49.720;7.296;2022-09-21T00:57:34;98997.25;;;9.19;100.00
4398;BME280;2213;49.720;7.296;2022-09-21T01:00:08;98994.44;;;9.13;100.00
4398;BME280;2213;49.720;7.296;2022-09-21T01:02:39;98999.47;;;9.14;100.00
4398;BME280;2213;49.720;7.296;2022-09-21T01:05:11;99003.03;;;9.05;100.00
4398;BME280;2213;49.720;7.296;2022-09-21T01:07:44;98995.44;;;8.94;100.00
4398;BME280;2213;49.720;7.296;2022-09-21T01:10:17;99010.72;;;8.89;100.00
4398;BME280;2213;49.720;7.296;2022-09-21T01:13:03;99010.72;;;8.89;100.00
4398;BME280;2213;49.720;7.296;2022-09-21T01:15:47;99014.00;;;8.91;100.00
4398;BME280;2213;49.720;7.296;2022-09-21T01:18:29;99007.66;;;8.93;100.00
4398;BME280;2213;49.720;7.296;2022-09-21T01:21:18;99009.81;;;8.98;100.00
4398;BME280;2213;49.720;7.296;2022-09-21T01:24:25;99007.22;;;8.98;100.00
4398;BME280;2213;49.720;7.296;2022-09-21T01:27:39;99006.19;;;8.91;100.00
4398;BME280;2213;49.720;7.296;2022-09-21T01:30:18;99004.84;;;8.87;100.00
4398;BME280;2213;49.720;7.296;2022-09-21T01:32:54;99002.38;;;8.85;100.00
4398;BME280;2213;49.720;7.296;2022-09-21T01:35:31;99003.19;;;8.86;100.00
4398;BME280;2213;49.720;7.296;2022-09-21T01:38:06;99005.47;;;8.81;100.00
4398;BME280;2213;49.720;7.296;2022-09-21T01:40:41;99006.72;;;8.77;100.00
4398;BME280;2213;49.720;7.296;2022-09-21T01:43:21;98998.19;;;8.67;100.00
4398;BME280;2213;49.720;7.296;2022-09-21T01:45:56;99006.31;;;8.64;100.00
4398;BME280;2213;49.720;7.296;2022-09-21T01:48:35;98998.41;;;8.55;100.00
4398;BME280;2213;49.720;7.296;2022-09-21T01:51:10;99001.63;;;8.49;100.00
4398;BME280;2213;49.720;7.296;2022-09-21T01:53:44;99003.25;;;8.50;100.00
4398;BME280;2213;49.720;7.296;2022-09-21T01:56:23;99003.34;;;8.41;100.00
4398;BME280;2213;49.720;7.296;2022-09-21T01:59:00;99006.41;;;8.36;100.00
4398;BME280;2213;49.720;7.296;2022-09-21T02:01:37;99007.56;;;8.24;100.00
4398;BME280;2213;49.720;7.296;2022-09-21T02:04:13;99004.38;;;8.30;100.00
4398;BME280;2213;49.720;7.296;2022-09-21T02:06:46;98995.69;;;8.39;100.00
4398;BME280;2213;49.720;7.296;2022-09-21T02:09:17;99003.34;;;8.41;100.00
4398;BME280;2213;49.720;7.296;2022-09-21T02:11:46;98998.28;;;8.39;100.00
4398;BME280;2213;49.720;7.296;2022-09-21T02:14:19;98993.06;;;8.39;100.00
4398;BME280;2213;49.720;7.296;2022-09-21T02:17:09;98996.56;;;8.30;100.00
4398;BME280;2213;49.720;7.296;2022-09-21T02:19:48;98996.09;;;8.17;100.00
4398;BME280;2213;49.720;7.296;2022-09-21T02:22:31;98991.78;;;8.08;100.00
4398;BME280;2213;49.720;7.296;2022-09-21T02:25:08;98998.34;;;8.12;100.00
4398;BME280;2213;49.720;7.296;2022-09-21T02:27:52;99002.94;;;8.18;100.00
4398;BME280;2213;49.720;7.296;2022-09-21T02:30:24;98997.88;;;8.17;100.00
4398;BME280;2213;49.720;7.296;2022-09-21T02:33:03;98994.44;;;8.16;100.00
4398;BME280;2213;49.720;7.296;2022-09-21T02:35:40;98994.31;;;8.18;100.00
4398;BME280;2213;49.720;7.296;2022-09-21T02:38:20;99001.47;;;8.16;100.00
4398;BME280;2213;49.720;7.296;2022-09-21T02:41:03;98998.59;;;8.09;100.00
4398;BME280;2213;49.720;7.296;2022-09-21T02:43:40;99002.19;;;8.08;100.00
4398;BME280;2213;49.720;7.296;2022-09-21T02:46:18;99001.97;;;8.01;100.00
4398;BME280;2213;49.720;7.296;2022-09-21T02:48:54;99007.97;;;8.02;100.00
4398;BME280;2213;49.720;7.296;2022-09-21T02:51:30;99000.69;;;8.05;100.00
4398;BME280;2213;49.720;7.296;2022-09-21T02:54:03;99004.28;;;8.04;100.00
4398;BME280;2213;49.720;7.296;2022-09-21T02:56:36;98999.19;;;8.03;100.00
4398;BME280;2213;49.720;7.296;2022-09-21T02:59:06;99001.44;;;7.98;100.00
4398;BME280;2213;49.720;7.296;2022-09-21T03:01:38;99003.88;;;7.99;100.00
4398;BME280;2213;49.720;7.296;2022-09-21T03:04:10;98999.19;;;8.03;100.00
4398;BME280;2213;49.720;7.296;2022-09-21T03:06:39;98998.25;;;8.04;100.00
4398;BME280;2213;49.720;7.296;2022-09-21T03:09:10;98996.47;;;8.04;100.00
4398;BME280;2213;49.720;7.296;2022-09-21T03:11:39;98989.38;;;7.97;100.00
4398;BME280;2213;49.720;7.296;2022-09-21T03:14:08;98994.19;;;7.92;100.00
4398;BME280;2213;49.720;7.296;2022-09-21T03:16:38;98993.91;;;7.95;100.00
4398;BME280;2213;49.720;7.296;2022-09-21T03:19:10;98994.50;;;7.89;100.00
4398;BME280;2213;49.720;7.296;2022-09-21T03:21:41;98992.56;;;7.91;100.00
4398;BME280;2213;49.720;7.296;2022-09-21T03:24:11;98998.56;;;7.91;100.00
4398;BME280;2213;49.720;7.296;2022-09-21T03:27:00;98994.88;;;7.94;100.00
4398;BME280;2213;49.720;7.296;2022-09-21T03:29:28;98998.22;;;7.86;100.00
4398;BME280;2213;49.720;7.296;2022-09-21T03:31:58;98999.63;;;7.81;100.00
4398;BME280;2213;49.720;7.296;2022-09-21T03:34:29;99001.25;;;7.82;100.00
4398;BME280;2213;49.720;7.296;2022-09-21T03:37:01;99004.00;;;7.80;100.00
4398;BME280;2213;49.720;7.296;2022-09-21T03:39:30;98989.06;;;7.82;100.00
4398;BME280;2213;49.720;7.296;2022-09-21T03:41:59;98993.59;;;7.80;100.00
4398;BME280;2213;49.720;7.296;2022-09-21T03:44:28;98995.50;;;7.78;100.00
4398;BME280;2213;49.720;7.296;2022-09-21T03:46:57;98994.31;;;7.73;100.00
4398;BME280;2213;49.720;7.296;2022-09-21T03:49:28;99001.31;;;7.72;100.00
4398;BME280;2213;49.720;7.296;2022-09-21T03:51:59;98995.97;;;7.74;100.00
4398;BME280;2213;49.720;7.296;2022-09-21T03:54:28;98997.50;;;7.67;100.00
4398;BME280;2213;49.720;7.296;2022-09-21T03:56:57;99005.31;;;7.67;100.00
4398;BME280;2213;49.720;7.296;2022-09-21T03:59:27;99004.34;;;7.68;100.00
4398;BME280;2213;49.720;7.296;2022-09-21T04:01:56;99003.97;;;7.63;100.00
4398;BME280;2213;49.720;7.296;2022-09-21T04:04:27;98998.00;;;7.52;100.00
4398;BME280;2213;49.720;7.296;2022-09-21T04:06:57;98999.34;;;7.56;100.00
4398;BME280;2213;49.720;7.296;2022-09-21T04:09:26;99006.47;;;7.54;100.00
4398;BME280;2213;49.720;7.296;2022-09-21T04:11:55;99005.34;;;7.57;100.00
4398;BME280;2213;49.720;7.296;2022-09-21T04:14:24;99009.47;;;7.59;100.00
4398;BME280;2213;49.720;7.296;2022-09-21T04:16:55;99011.38;;;7.57;100.00
4398;BME280;2213;49.720;7.296;2022-09-21T04:19:24;99013.97;;;7.57;100.00
4398;BME280;2213;49.720;7.296;2022-09-21T04:21:54;99010.72;;;7.55;100.00
4398;BME280;2213;49.720;7.296;2022-09-21T04:24:22;99006.22;;;7.48;100.00
4398;BME280;2213;49.720;7.296;2022-09-21T04:26:51;99022.53;;;7.40;100.00
4398;BME280;2213;49.720;7.296;2022-09-21T04:29:21;99016.91;;;7.45;100.00
4398;BME280;2213;49.720;7.296;2022-09-21T04:31:50;99021.97;;;7.46;100.00
4398;BME280;2213;49.720;7.296;2022-09-21T04:34:20;99014.84;;;7.48;100.00
4398;BME280;2213;49.720;7.296;2022-09-21T04:36:50;99024.19;;;7.41;100.00
4398;BME280;2213;49.720;7.296;2022-09-21T04:39:21;99026.38;;;7.36;100.00
4398;BME280;2213;49.720;7.296;2022-09-21T04:41:51;99028.31;;;7.34;100.00
4398;BME280;2213;49.720;7.296;2022-09-21T04:44:21;99029.97;;;7.35;100.00
4398;BME280;2213;49.720;7.296;2022-09-21T04:46:51;99029.81;;;7.37;100.00
4398;BME280;2213;49.720;7.296;2022-09-21T04:49:20;99031.16;;;7.41;100.00
4398;BME280;2213;49.720;7.296;2022-09-21T04:51:49;99022.59;;;7.31;100.00
4398;BME280;2213;49.720;7.296;2022-09-21T04:54:20;99030.50;;;7.29;100.00
4398;BME280;2213;49.720;7.296;2022-09-21T04:56:50;99041.06;;;7.28;100.00
4398;BME280;2213;49.720;7.296;2022-09-21T04:59:19;99039.97;;;7.30;100.00
4398;BME280;2213;49.720;7.296;2022-09-21T05:01:49;99029.44;;;7.22;100.00
4398;BME280;2213;49.720;7.296;2022-09-21T05:04:18;99037.53;;;7.19;100.00
4398;BME280;2213;49.720;7.296;2022-09-21T05:06:47;99035.78;;;7.10;100.00
4398;BME280;2213;49.720;7.296;2022-09-21T05:09:16;99045.34;;;7.09;100.00
4398;BME280;2213;49.720;7.296;2022-09-21T05:12:03;99052.06;;;7.12;100.00
4398;BME280;2213;49.720;7.296;2022-09-21T05:14:32;99040.03;;;7.11;100.00
4398;BME280;2213;49.720;7.296;2022-09-21T05:17:01;99043.88;;;7.07;100.00
4398;BME280;2213;49.720;7.296;2022-09-21T05:19:30;99043.31;;;7.03;100.00
4398;BME280;2213;49.720;7.296;2022-09-21T05:21:59;99044.00;;;7.05;100.00
4398;BME280;2213;49.720;7.296;2022-09-21T05:24:29;99049.75;;;7.09;100.00
4398;BME280;2213;49.720;7.296;2022-09-21T05:26:58;99049.34;;;7.04;100.00
4398;BME280;2213;49.720;7.296;2022-09-21T05:29:31;99057.16;;;7.04;100.00
4398;BME280;2213;49.720;7.296;2022-09-21T05:32:06;99054.13;;;7.08;100.00
4398;BME280;2213;49.720;7.296;2022-09-21T05:34:52;99055.63;;;7.11;100.00
4398;BME280;2213;49.720;7.296;2022-09-21T05:37:39;99058.78;;;7.15;100.00
4398;BME280;2213;49.720;7.296;2022-09-21T05:40:14;99066.56;;;7.05;100.00
4398;BME280;2213;49.720;7.296;2022-09-21T05:42:45;99069.47;;;7.02;100.00
4398;BME280;2213;49.720;7.296;2022-09-21T05:45:18;99071.94;;;7.03;100.00
4398;BME280;2213;49.720;7.296;2022-09-21T05:48:05;99071.50;;;7.08;100.00
4398;BME280;2213;49.720;7.296;2022-09-21T05:50:51;99070.25;;;7.12;100.00
4398;BME280;2213;49.720;7.296;2022-09-21T05:53:47;99072.75;;;7.04;100.00
4398;BME280;2213;49.720;7.296;2022-09-21T05:56:35;99079.72;;;7.03;100.00
4398;BME280;2213;49.720;7.296;2022-09-21T05:59:28;99074.38;;;7.05;100.00
4398;BME280;2213;49.720;7.296;2022-09-21T06:02:09;99080.84;;;7.01;100.00
4398;BME280;2213;49.720;7.296;2022-09-21T06:04:47;99081.38;;;7.04;100.00
4398;BME280;2213;49.720;7.296;2022-09-21T06:07:19;99085.47;;;7.07;100.00
4398;BME280;2213;49.720;7.296;2022-09-21T06:09:48;99080.69;;;7.02;100.00
4398;BME280;2213;49.720;7.296;2022-09-21T06:12:17;99082.47;;;7.02;100.00
4398;BME280;2213;49.720;7.296;2022-09-21T06:14:47;99077.66;;;7.07;100.00
4398;BME280;2213;49.720;7.296;2022-09-21T06:17:18;99084.25;;;7.11;100.00
4398;BME280;2213;49.720;7.296;2022-09-21T06:19:47;99080.28;;;7.07;100.00
4398;BME280;2213;49.720;7.296;2022-09-21T06:22:15;99088.06;;;7.07;100.00
4398;BME280;2213;49.720;7.296;2022-09-21T06:24:44;99091.78;;;7.04;100.00
4398;BME280;2213;49.720;7.296;2022-09-21T06:27:13;99085.88;;;7.12;100.00
4398;BME280;2213;49.720;7.296;2022-09-21T06:29:42;99085.03;;;7.21;100.00
4398;BME280;2213;49.720;7.296;2022-09-21T06:32:11;99089.25;;;7.22;100.00
4398;BME280;2213;49.720;7.296;2022-09-21T06:34:41;99083.09;;;7.23;100.00
4398;BME280;2213;49.720;7.296;2022-09-21T06:37:10;99092.28;;;7.27;100.00
4398;BME280;2213;49.720;7.296;2022-09-21T06:39:39;99086.94;;;7.29;100.00
4398;BME280;2213;49.720;7.296;2022-09-21T06:42:07;99086.50;;;7.33;100.00
4398;BME280;2213;49.720;7.296;2022-09-21T06:44:36;99096.63;;;7.36;100.00
4398;BME280;2213;49.720;7.296;2022-09-21T06:47:05;99092.13;;;7.38;100.00
4398;BME280;2213;49.720;7.296;2022-09-21T06:49:33;99092.66;;;7.42;100.00
4398;BME280;2213;49.720;7.296;2022-09-21T06:52:09;99089.91;;;7.43;100.00
4398;BME280;2213;49.720;7.296;2022-09-21T06:54:38;99087.00;;;7.46;100.00
4398;BME280;2213;49.720;7.296;2022-09-21T06:57:08;99081.25;;;7.52;100.00
4398;BME280;2213;49.720;7.296;2022-09-21T06:59:37;99092.06;;;7.57;100.00
4398;BME280;2213;49.720;7.296;2022-09-21T07:02:07;99087.53;;;7.59;100.00
4398;BME280;2213;49.720;7.296;2022-09-21T07:04:38;99091.22;;;7.67;100.00
4398;BME280;2213;49.720;7.296;2022-09-21T07:07:10;99091.59;;;7.72;100.00
4398;BME280;2213;49.720;7.296;2022-09-21T07:09:39;99087.63;;;7.77;100.00
4398;BME280;2213;49.720;7.296;2022-09-21T07:12:28;99093.06;;;7.84;100.00
4398;BME280;2213;49.720;7.296;2022-09-21T07:14:58;99085.38;;;7.82;100.00
4398;BME280;2213;49.720;7.296;2022-09-21T07:17:31;99091.00;;;7.87;100.00
4398;BME280;2213;49.720;7.296;2022-09-21T07:20:01;99086.97;;;7.93;100.00
4398;BME280;2213;49.720;7.296;2022-09-21T07:22:34;99092.59;;;7.98;100.00
4398;BME280;2213;49.720;7.296;2022-09-21T07:25:05;99096.53;;;8.02;100.00
4398;BME280;2213;49.720;7.296;2022-09-21T07:27:34;99090.88;;;8.06;100.00
4398;BME280;2213;49.720;7.296;2022-09-21T07:30:05;99092.09;;;8.12;100.00
4398;BME280;2213;49.720;7.296;2022-09-21T07:32:34;99088.75;;;8.20;100.00
4398;BME280;2213;49.720;7.296;2022-09-21T07:35:04;99092.72;;;8.24;100.00
4398;BME280;2213;49.720;7.296;2022-09-21T07:37:34;99087.75;;;8.30;100.00
4398;BME280;2213;49.720;7.296;2022-09-21T07:40:05;99091.72;;;8.34;100.00
4398;BME280;2213;49.720;7.296;2022-09-21T07:42:34;99094.56;;;8.41;100.00
4398;BME280;2213;49.720;7.296;2022-09-21T07:45:03;99091.34;;;8.47;100.00
4398;BME280;2213;49.720;7.296;2022-09-21T07:47:32;99088.31;;;8.51;100.00
4398;BME280;2213;49.720;7.296;2022-09-21T07:50:01;99084.44;;;8.55;100.00
4398;BME280;2213;49.720;7.296;2022-09-21T07:52:29;99085.47;;;8.63;100.00
4398;BME280;2213;49.720;7.296;2022-09-21T07:54:59;99082.97;;;8.71;100.00
4398;BME280;2213;49.720;7.296;2022-09-21T07:57:30;99079.59;;;8.78;100.00
4398;BME280;2213;49.720;7.296;2022-09-21T08:00:16;99086.66;;;8.86;100.00
4398;BME280;2213;49.720;7.296;2022-09-21T08:02:45;99085.91;;;8.93;100.00
4398;BME280;2213;49.720;7.296;2022-09-21T08:05:14;99074.72;;;9.01;100.00
4398;BME280;2213;49.720;7.296;2022-09-21T08:07:43;99077.41;;;9.09;100.00
4398;BME280;2213;49.720;7.296;2022-09-21T08:10:13;99074.19;;;9.15;100.00
4398;BME280;2213;49.720;7.296;2022-09-21T08:12:42;99073.44;;;9.23;100.00
4398;BME280;2213;49.720;7.296;2022-09-21T08:15:11;99082.13;;;9.31;100.00
4398;BME280;2213;49.720;7.296;2022-09-21T08:18:04;99080.38;;;9.40;100.00
4398;BME280;2213;49.720;7.296;2022-09-21T08:20:33;99074.22;;;9.49;100.00
4398;BME280;2213;49.720;7.296;2022-09-21T08:23:01;99068.88;;;9.58;100.00
4398;BME280;2213;49.720;7.296;2022-09-21T08:25:32;99070.59;;;9.68;100.00
4398;BME280;2213;49.720;7.296;2022-09-21T08:28:02;99076.00;;;9.74;100.00
4398;BME280;2213;49.720;7.296;2022-09-21T08:30:36;99077.84;;;9.90;100.00
4398;BME280;2213;49.720;7.296;2022-09-21T08:33:05;99072.66;;;9.98;100.00
4398;BME280;2213;49.720;7.296;2022-09-21T08:35:34;99073.34;;;10.08;100.00
4398;BME280;2213;49.720;7.296;2022-09-21T08:38:03;99085.50;;;10.17;100.00
4398;BME280;2213;49.720;7.296;2022-09-21T08:40:33;99077.03;;;10.31;100.00
4398;BME280;2213;49.720;7.296;2022-09-21T08:43:06;99076.09;;;10.40;100.00
4398;BME280;2213;49.720;7.296;2022-09-21T08:45:41;99073.34;;;10.50;100.00
4398;BME280;2213;49.720;7.296;2022-09-21T08:48:19;99075.47;;;10.63;100.00
4398;BME280;2213;49.720;7.296;2022-09-21T08:51:00;99077.28;;;10.70;100.00
4398;BME280;2213;49.720;7.296;2022-09-21T08:53:33;99080.88;;;10.77;100.00
4398;BME280;2213;49.720;7.296;2022-09-21T08:56:07;99073.19;;;10.84;100.00
4398;BME280;2213;49.720;7.296;2022-09-21T08:58:37;99076.78;;;10.91;100.00
4398;BME280;2213;49.720;7.296;2022-09-21T09:01:42;99063.38;;;11.02;100.00
4398;BME280;2213;49.720;7.296;2022-09-21T09:04:30;99066.97;;;11.09;100.00
4398;BME280;2213;49.720;7.296;2022-09-21T09:07:15;99067.63;;;11.19;100.00
4398;BME280;2213;49.720;7.296;2022-09-21T09:10:05;99069.56;;;11.25;100.00
4398;BME280;2213;49.720;7.296;2022-09-21T09:12:58;99069.06;;;11.38;100.00
4398;BME280;2213;49.720;7.296;2022-09-21T09:15:56;99070.06;;;11.45;100.00
4398;BME280;2213;49.720;7.296;2022-09-21T09:18:39;99067.56;;;11.51;100.00
4398;BME280;2213;49.720;7.296;2022-09-21T09:21:15;99069.19;;;11.60;100.00
4398;BME280;2213;49.720;7.296;2022-09-21T09:24:01;99066.88;;;11.66;100.00
4398;BME280;2213;49.720;7.296;2022-09-21T09:26:36;99062.13;;;11.69;100.00
4398;BME280;2213;49.720;7.296;2022-09-21T09:29:21;99064.38;;;11.80;100.00
4398;BME280;2213;49.720;7.296;2022-09-21T09:31:53;99055.38;;;11.83;100.00
4398;BME280;2213;49.720;7.296;2022-09-21T09:34:29;99054.69;;;11.89;100.00
4398;BME280;2213;49.720;7.296;2022-09-21T09:37:09;99050.75;;;11.93;100.00
4398;BME280;2213;49.720;7.296;2022-09-21T09:39:40;99046.28;;;12.01;100.00
4398;BME280;2213;49.720;7.296;2022-09-21T09:42:34;99049.84;;;12.08;100.00
4398;BME280;2213;49.720;7.296;2022-09-21T09:45:37;99049.97;;;12.15;100.00
4398;BME280;2213;49.720;7.296;2022-09-21T09:51:20;99057.09;;;12.29;100.00
4398;BME280;2213;49.720;7.296;2022-09-21T09:53:50;99044.31;;;12.34;100.00
4398;BME280;2213;49.720;7.296;2022-09-21T09:56:19;99053.13;;;12.41;100.00
4398;BME280;2213;49.720;7.296;2022-09-21T09:58:54;99046.19;;;12.48;100.00
4398;BME280;2213;49.720;7.296;2022-09-21T10:01:40;99047.47;;;12.52;100.00
4398;BME280;2213;49.720;7.296;2022-09-21T10:04:11;99047.59;;;12.59;100.00
4398;BME280;2213;49.720;7.296;2022-09-21T10:06:41;99041.78;;;12.63;100.00
4398;BME280;2213;49.720;7.296;2022-09-21T10:09:24;99045.72;;;12.68;100.00
4398;BME280;2213;49.720;7.296;2022-09-21T10:11:57;99041.75;;;12.72;100.00
4398;BME280;2213;49.720;7.296;2022-09-21T10:14:32;99037.44;;;12.79;100.00
4398;BME280;2213;49.720;7.296;2022-09-21T10:17:06;99038.34;;;12.86;100.00
4398;BME280;2213;49.720;7.296;2022-09-21T10:19:36;99041.13;;;12.84;100.00
4398;BME280;2213;49.720;7.296;2022-09-21T10:22:05;99045.25;;;12.87;100.00
4398;BME280;2213;49.720;7.296;2022-09-21T10:24:37;99034.03;;;12.93;100.00
4398;BME280;2213;49.720;7.296;2022-09-21T10:27:13;99028.72;;;13.01;100.00
4398;BME280;2213;49.720;7.296;2022-09-21T10:29:45;99019.91;;;13.08;100.00
4398;BME280;2213;49.720;7.296;2022-09-21T10:32:25;99018.06;;;13.17;100.00
4398;BME280;2213;49.720;7.296;2022-09-21T10:35:14;99016.72;;;13.21;100.00
4398;BME280;2213;49.720;7.296;2022-09-21T10:37:46;99014.38;;;13.26;100.00
4398;BME280;2213;49.720;7.296;2022-09-21T10:40:34;99018.56;;;13.35;100.00
4398;BME280;2213;49.720;7.296;2022-09-21T10:43:04;99010.94;;;13.40;100.00
4398;BME280;2213;49.720;7.296;2022-09-21T10:45:35;99010.84;;;13.48;100.00
4398;BME280;2213;49.720;7.296;2022-09-21T10:48:13;99017.00;;;13.55;100.00
4398;BME280;2213;49.720;7.296;2022-09-21T10:50:45;99004.78;;;13.63;100.00
4398;BME280;2213;49.720;7.296;2022-09-21T10:53:22;99008.47;;;13.68;100.00
4398;BME280;2213;49.720;7.296;2022-09-21T10:55:59;99000.41;;;13.70;100.00
4398;BME280;2213;49.720;7.296;2022-09-21T10:59:20;99003.28;;;13.75;100.00
4398;BME280;2213;49.720;7.296;2022-09-21T11:01:51;98996.69;;;13.79;100.00
4398;BME280;2213;49.720;7.296;2022-09-21T11:04:35;99000.41;;;13.84;100.00
4398;BME280;2213;49.720;7.296;2022-09-21T11:07:18;99004.91;;;13.90;100.00
4398;BME280;2213;49.720;7.296;2022-09-21T11:10:02;99009.63;;;13.95;100.00
4398;BME280;2213;49.720;7.296;2022-09-21T11:12:50;99003.63;;;14.01;98.72
4398;BME280;2213;49.720;7.296;2022-09-21T11:15:39;99001.44;;;14.04;95.03
4398;BME280;2213;49.720;7.296;2022-09-21T11:18:19;99004.50;;;14.08;97.09
4398;BME280;2213;49.720;7.296;2022-09-21T11:20:58;99002.50;;;14.10;96.26
4398;BME280;2213;49.720;7.296;2022-09-21T11:23:42;98994.88;;;14.15;98.97
4398;BME280;2213;49.720;7.296;2022-09-21T11:26:22;98995.31;;;14.19;100.00
4398;BME280;2213;49.720;7.296;2022-09-21T11:29:02;98993.75;;;14.24;100.00
4398;BME280;2213;49.720;7.296;2022-09-21T11:31:53;98998.56;;;14.21;97.74
4398;BME280;2213;49.720;7.296;2022-09-21T11:34:59;98994.13;;;14.21;93.60
4398;BME280;2213;49.720;7.296;2022-09-21T11:37:49;99001.66;;;14.24;93.45
4398;BME280;2213;49.720;7.296;2022-09-21T11:40:45;98988.75;;;14.29;92.75
4398;BME280;2213;49.720;7.296;2022-09-21T11:43:38;98985.22;;;14.37;92.06
4398;BME280;2213;49.720;7.296;2022-09-21T11:46:21;98987.91;;;14.43;92.53
4398;BME280;2213;49.720;7.296;2022-09-21T11:49:11;98978.81;;;14.46;88.74
4398;BME280;2213;49.720;7.296;2022-09-21T11:52:18;98977.56;;;14.42;87.69
4398;BME280;2213;49.720;7.296;2022-09-21T11:55:35;98980.03;;;14.43;88.96
4398;BME280;2213;49.720;7.296;2022-09-21T11:58:21;98973.72;;;14.44;85.96
4398;BME280;2213;49.720;7.296;2022-09-21T12:01:04;98979.00;;;14.44;87.00
4398;BME280;2213;49.720;7.296;2022-09-21T12:03:54;98973.72;;;14.44;85.95
4398;BME280;2213;49.720;7.296;2022-09-21T12:06:51;98969.88;;;14.40;85.14
4398;BME280;2213;49.720;7.296;2022-09-21T12:12:59;98969.28;;;14.45;84.73
4398;BME280;2213;49.720;7.296;2022-09-21T12:15:41;98967.91;;;14.49;87.03
4398;BME280;2213;49.720;7.296;2022-09-21T12:18:22;98966.72;;;14.51;85.94
4398;BME280;2213;49.720;7.296;2022-09-21T12:21:03;98956.00;;;14.53;86.34
4398;BME280;2213;49.720;7.296;2022-09-21T12:23:42;98968.59;;;14.57;86.78
4398;BME280;2213;49.720;7.296;2022-09-21T12:26:21;98953.69;;;14.65;86.44
4398;BME280;2213;49.720;7.296;2022-09-21T12:28:59;98953.69;;;14.65;84.58
4398;BME280;2213;49.720;7.296;2022-09-21T12:31:37;98947.28;;;14.74;85.57
4398;BME280;2213;49.720;7.296;2022-09-21T12:34:15;98946.06;;;14.76;83.45
4398;BME280;2213;49.720;7.296;2022-09-21T12:36:59;98949.13;;;14.80;79.73
4398;BME280;2213;49.720;7.296;2022-09-21T12:39:39;98947.75;;;14.84;79.37
4398;BME280;2213;49.720;7.296;2022-09-21T12:42:28;98942.53;;;14.90;81.15
4398;BME280;2213;49.720;7.296;2022-09-21T12:45:06;98942.56;;;14.97;76.34
4398;BME280;2213;49.720;7.296;2022-09-21T12:47:54;98945.44;;;15.02;77.37
4398;BME280;2213;49.720;7.296;2022-09-21T12:50:36;98944.66;;;15.08;74.09
4398;BME280;2213;49.720;7.296;2022-09-21T12:53:13;98943.28;;;15.12;74.86
4398;BME280;2213;49.720;7.296;2022-09-21T12:55:54;98938.81;;;15.13;77.24
4398;BME280;2213;49.720;7.296;2022-09-21T12:58:47;98941.50;;;15.19;79.58
4398;BME280;2213;49.720;7.296;2022-09-21T13:01:31;98923.25;;;15.24;79.85
4398;BME280;2213;49.720;7.296;2022-09-21T13:04:31;98929.16;;;15.26;75.56
4398;BME280;2213;49.720;7.296;2022-09-21T13:07:53;98914.81;;;15.35;75.04
4398;BME280;2213;49.720;7.296;2022-09-21T13:10:38;98923.38;;;15.44;75.21
4398;BME280;2213;49.720;7.296;2022-09-21T13:13:27;98927.44;;;15.46;73.19
4398;BME280;2213;49.720;7.296;2022-09-21T13:15:57;98915.94;;;15.54;71.91
4398;BME280;2213;49.720;7.296;2022-09-21T13:18:32;98917.78;;;15.60;71.91
4398;BME280;2213;49.720;7.296;2022-09-21T13:21:18;98911.94;;;15.65;70.69
4398;BME280;2213;49.720;7.296;2022-09-21T13:23:54;98907.06;;;15.68;69.75
4398;BME280;2213;49.720;7.296;2022-09-21T13:26:37;98917.41;;;15.76;70.47
4398;BME280;2213;49.720;7.296;2022-09-21T13:29:29;98912.56;;;15.80;70.48
4398;BME280;2213;49.720;7.296;2022-09-21T13:32:00;98914.44;;;15.92;71.48
4398;BME280;2213;49.720;7.296;2022-09-21T13:34:34;98917.91;;;15.99;70.20
4398;BME280;2213;49.720;7.296;2022-09-21T13:37:31;98917.28;;;16.10;71.16
4398;BME280;2213;49.720;7.296;2022-09-21T13:40:37;98914.69;;;16.24;72.45
4398;BME280;2213;49.720;7.296;2022-09-21T13:43:23;98905.38;;;16.34;72.71
4398;BME280;2213;49.720;7.296;2022-09-21T13:45:56;98898.44;;;16.46;72.07
4398;BME280;2213;49.720;7.296;2022-09-21T13:48:28;98898.88;;;16.56;68.69
4398;BME280;2213;49.720;7.296;2022-09-21T13:51:07;98897.84;;;16.84;63.29
4398;BME280;2213;49.720;7.296;2022-09-21T13:53:39;98890.88;;;17.09;60.19
4398;BME280;2213;49.720;7.296;2022-09-21T13:56:20;98886.91;;;17.38;60.80
4398;BME280;2213;49.720;7.296;2022-09-21T13:58:55;98879.75;;;17.58;61.42
4398;BME280;2213;49.720;7.296;2022-09-21T14:01:33;98885.97;;;17.77;62.45
4398;BME280;2213;49.720;7.296;2022-09-21T14:04:24;98881.44;;;17.84;59.47
4398;BME280;2213;49.720;7.296;2022-09-21T14:06:57;98885.53;;;17.80;58.62
4398;BME280;2213;49.720;7.296;2022-09-21T14:09:37;98876.66;;;17.61;57.08
4398;BME280;2213;49.720;7.296;2022-09-21T14:12:18;98881.97;;;17.54;58.89
4398;BME280;2213;49.720;7.296;2022-09-21T14:18:34;98877.47;;;17.62;60.02
4398;BME280;2213;49.720;7.296;2022-09-21T14:21:13;98877.69;;;17.67;58.72